createdAt,value
2022-10-17T00:01:14.298Z,63.00
2022-10-17T00:06:17.501Z,62.90
2022-10-17T00:11:23.925Z,62.70
2022-10-17T00:16:29.059Z,62.90
2022-10-17T00:21:32.405Z,62.80
2022-10-17T00:26:36.876Z,62.70
2022-10-17T00:31:40.004Z,62.70
2022-10-17T00:36:43.063Z,62.60
2022-10-17T00:41:47.441Z,62.60
2022-10-17T00:46:50.481Z,62.60
2022-10-17T00:51:58.022Z,62.70
2022-10-17T00:57:02.618Z,62.80
2022-10-17T01:02:08.341Z,62.70
2022-10-17T01:07:11.756Z,62.50
2022-10-17T01:12:21.545Z,62.50
2022-10-17T01:17:31.073Z,62.80
2022-10-17T01:22:41.223Z,63.00
2022-10-17T01:28:02.191Z,62.90
2022-10-17T01:33:11.234Z,63.10
2022-10-17T01:38:19.873Z,62.90
2022-10-17T01:43:29.902Z,63.30
2022-10-17T01:48:43.061Z,63.50
2022-10-17T01:53:51.079Z,63.70
2022-10-17T01:58:58.599Z,63.50
2022-10-17T02:04:04.730Z,63.30
2022-10-17T02:09:22.384Z,63.40
2022-10-17T02:14:37.438Z,63.60
2022-10-17T02:19:51.219Z,64.30
2022-10-17T02:25:01.637Z,63.70
2022-10-17T02:30:11.799Z,63.70
2022-10-17T02:35:18.866Z,63.70
2022-10-17T02:40:25.437Z,63.70
2022-10-17T02:45:35.800Z,63.80
2022-10-17T02:50:52.371Z,63.80
2022-10-17T02:56:01.133Z,64.10
2022-10-17T03:01:08.886Z,63.90
2022-10-17T03:06:13.467Z,64.00
2022-10-17T03:11:16.538Z,64.20
2022-10-17T03:16:19.969Z,63.90
2022-10-17T03:21:24.594Z,63.80
2022-10-17T03:26:29.542Z,63.80
2022-10-17T03:31:33.779Z,63.50
2022-10-17T03:36:39.224Z,63.60
2022-10-17T03:41:42.624Z,63.60
2022-10-17T03:46:45.630Z,63.40
2022-10-17T03:51:50.239Z,63.30
2022-10-17T03:56:54.634Z,63.40
2022-10-17T04:01:58.644Z,63.40
2022-10-17T04:07:03.085Z,63.30
2022-10-17T04:12:06.651Z,63.30
2022-10-17T04:17:12.194Z,63.30
2022-10-17T04:22:16.841Z,63.40
2022-10-17T04:27:20.003Z,63.50
2022-10-17T04:32:24.441Z,63.50
2022-10-17T04:37:35.403Z,63.70
2022-10-17T04:42:44.893Z,63.70
2022-10-17T04:47:51.391Z,63.70
2022-10-17T04:52:55.852Z,63.60
2022-10-17T04:57:58.873Z,63.70
2022-10-17T05:03:01.965Z,63.60
2022-10-17T05:08:07.821Z,63.70
2022-10-17T05:13:11.293Z,63.60
2022-10-17T05:18:14.405Z,63.40
2022-10-17T05:23:21.249Z,63.60
2022-10-17T05:28:26.578Z,63.70
2022-10-17T05:33:34.313Z,63.50
2022-10-17T05:38:38.784Z,63.60
2022-10-17T05:43:42.432Z,63.80
2022-10-17T05:48:47.138Z,63.80
2022-10-17T05:53:51.446Z,63.80
2022-10-17T05:59:01.023Z,64.10
2022-10-17T06:04:18.943Z,64.20
2022-10-17T06:09:24.956Z,64.40
2022-10-17T06:14:30.531Z,64.80
2022-10-17T06:19:38.015Z,64.80
2022-10-17T06:24:42.484Z,64.90
2022-10-17T06:29:45.475Z,65.20
2022-10-17T06:34:48.430Z,65.20
2022-10-17T06:39:53.168Z,65.40
2022-10-17T06:44:58.559Z,65.60
2022-10-17T06:50:20.144Z,65.60
2022-10-17T06:55:43.051Z,65.80
2022-10-17T07:01:10.331Z,66.40
2022-10-17T07:06:13.953Z,66.70
2022-10-17T07:11:21.734Z,66.80
2022-10-17T07:16:27.713Z,67.20
2022-10-17T07:21:39.921Z,67.90
2022-10-17T07:26:46.938Z,67.20
2022-10-17T07:31:51.961Z,67.40
2022-10-17T07:36:55.149Z,67.30
2022-10-17T07:42:00.545Z,67.10
2022-10-17T07:47:04.269Z,67.00
2022-10-17T07:52:07.577Z,66.90
2022-10-17T07:57:11.982Z,66.80
2022-10-17T08:02:22.469Z,67.20
2022-10-17T08:07:29.263Z,67.30
2022-10-17T08:12:34.456Z,67.00
2022-10-17T08:17:38.927Z,67.10
2022-10-17T08:22:41.969Z,67.00
2022-10-17T08:27:46.264Z,66.60
2022-10-17T08:32:49.271Z,66.20
2022-10-17T08:37:52.235Z,65.90
2022-10-17T08:43:21.699Z,65.60
2022-10-17T08:48:26.787Z,65.20
2022-10-17T08:53:36.230Z,65.10
2022-10-17T08:58:40.812Z,64.40
2022-10-17T09:04:00.649Z,64.60
2022-10-17T09:09:21.633Z,64.10
2022-10-17T09:14:45.534Z,64.10
2022-10-17T09:19:58.523Z,64.70
2022-10-17T09:25:07.028Z,64.00
2022-10-17T09:30:46.215Z,64.00
2022-10-17T09:35:50.280Z,63.00
2022-10-17T09:40:57.200Z,64.70
2022-10-17T09:46:07.216Z,63.40
2022-10-17T09:51:21.780Z,63.10
2022-10-17T09:56:28.587Z,63.10
2022-10-17T10:01:34.802Z,62.80
2022-10-17T10:06:38.421Z,62.40
2022-10-17T10:11:49.891Z,62.30
2022-10-17T10:16:54.687Z,61.90
2022-10-17T10:21:59.611Z,62.40
2022-10-17T10:27:05.878Z,62.50
2022-10-17T10:32:13.015Z,61.00
2022-10-17T10:37:22.632Z,60.20
2022-10-17T10:42:29.217Z,59.90
2022-10-17T10:47:34.436Z,59.70
2022-10-17T10:52:44.767Z,59.50
2022-10-17T10:57:51.016Z,59.00
2022-10-17T11:03:02.296Z,59.00
2022-10-17T11:08:13.328Z,58.70
2022-10-17T11:13:20.844Z,58.50
2022-10-17T11:18:29.688Z,58.70
2022-10-17T11:23:41.155Z,58.90
2022-10-17T11:28:44.143Z,58.80
2022-10-17T11:33:53.173Z,59.30
2022-10-17T11:39:00.880Z,58.90
2022-10-17T11:44:12.983Z,58.80
2022-10-17T11:49:24.025Z,58.10
2022-10-17T11:54:32.806Z,58.00
2022-10-17T12:00:00.385Z,57.80
2022-10-17T12:05:13.716Z,57.30
2022-10-17T12:10:26.191Z,57.40
2022-10-17T12:15:31.301Z,56.90
2022-10-17T12:20:37.606Z,56.90
2022-10-17T12:25:52.490Z,56.70
2022-10-17T12:31:01.070Z,56.40
2022-10-17T12:36:46.832Z,56.60
2022-10-17T12:41:57.351Z,56.80
2022-10-17T12:47:30.480Z,56.10
2022-10-17T12:52:59.352Z,56.40
2022-10-17T12:58:04.919Z,55.80
2022-10-17T13:03:15.496Z,55.90
2022-10-17T13:08:22.999Z,55.50
2022-10-17T13:13:36.260Z,55.80
2022-10-17T13:18:40.837Z,55.90
2022-10-17T13:23:43.818Z,56.10
2022-10-17T13:28:47.561Z,56.00
2022-10-17T13:33:57.535Z,56.00
2022-10-17T13:39:06.918Z,55.30
2022-10-17T13:44:15.476Z,55.80
2022-10-17T13:49:25.799Z,55.10
2022-10-17T13:54:36.903Z,55.80
2022-10-17T13:59:42.044Z,55.50
2022-10-17T14:10:20.301Z,55.10
2022-10-17T14:15:26.495Z,55.10
2022-10-17T14:26:06.500Z,54.80
2022-10-17T14:31:30.846Z,54.70
2022-10-17T14:36:42.005Z,54.30
2022-10-17T14:41:46.513Z,54.30
2022-10-17T14:46:53.197Z,54.50
2022-10-17T14:52:29.542Z,54.00
2022-10-17T14:57:43.820Z,53.90
2022-10-17T15:02:47.600Z,53.90
2022-10-17T15:07:53.006Z,54.50
2022-10-17T15:12:59.121Z,54.50
2022-10-17T16:00:21.327Z,53.70
2022-10-17T16:05:26.528Z,54.20
2022-10-17T16:10:29.663Z,54.50
2022-10-17T16:15:34.272Z,54.70
2022-10-17T16:20:37.480Z,54.70
2022-10-17T16:25:41.012Z,54.70
2022-10-17T16:30:46.391Z,54.50
2022-10-17T16:35:49.788Z,54.40
2022-10-17T16:40:52.716Z,54.60
2022-10-17T16:45:57.068Z,54.70
2022-10-17T16:51:00.054Z,54.70
2022-10-17T16:56:03.870Z,54.80
2022-10-17T17:01:10.597Z,55.00
2022-10-17T17:06:15.319Z,55.00
2022-10-17T17:11:19.849Z,55.00
2022-10-17T17:16:25.518Z,55.00
2022-10-17T17:21:29.035Z,55.10
2022-10-17T17:26:35.827Z,55.10
2022-10-17T17:31:40.204Z,55.10
2022-10-17T17:36:54.330Z,55.30
2022-10-17T17:41:57.306Z,55.30
2022-10-17T17:47:02.134Z,55.30
2022-10-17T17:52:05.812Z,55.40
2022-10-17T17:57:09.022Z,55.40
2022-10-17T18:02:13.650Z,55.50
2022-10-17T18:07:16.699Z,55.80
2022-10-17T18:12:19.650Z,55.60
2022-10-17T18:17:24.620Z,55.80
2022-10-17T18:22:28.069Z,55.70
2022-10-17T18:27:31.399Z,55.80
2022-10-17T18:32:35.856Z,56.00
2022-10-17T18:37:38.996Z,56.10
2022-10-17T18:42:43.682Z,56.20
2022-10-17T18:47:48.145Z,56.40
2022-10-17T18:52:51.343Z,56.40
2022-10-17T18:57:54.475Z,56.40
2022-10-17T19:02:58.983Z,56.50
2022-10-17T19:08:01.920Z,56.60
2022-10-17T19:13:05.150Z,56.70
2022-10-17T19:18:09.538Z,56.60
2022-10-17T19:23:12.498Z,56.60
2022-10-17T19:28:15.499Z,56.70
2022-10-17T19:33:19.934Z,56.70
2022-10-17T19:38:22.984Z,56.70
2022-10-17T19:43:26.087Z,56.70
2022-10-17T19:48:32.902Z,56.80
2022-10-17T19:53:36.509Z,56.90
2022-10-17T19:58:45.345Z,56.90
2022-10-17T20:03:50.188Z,57.00
2022-10-17T20:08:53.396Z,57.10
2022-10-17T20:13:57.174Z,57.00
2022-10-17T20:19:12.651Z,56.70
2022-10-17T20:24:17.551Z,56.90
2022-10-17T20:29:23.941Z,56.80
2022-10-17T20:34:28.560Z,56.90
2022-10-17T20:39:31.493Z,56.80
2022-10-17T20:44:34.481Z,56.70
2022-10-17T20:49:38.771Z,56.70
2022-10-17T20:54:41.828Z,56.90
2022-10-17T20:59:45.857Z,56.80
2022-10-17T21:04:50.163Z,56.90
2022-10-17T21:09:53.579Z,57.60
2022-10-17T21:14:56.545Z,57.10
2022-10-17T21:20:01.113Z,57.20
2022-10-17T21:25:04.229Z,57.30
2022-10-17T21:35:12.505Z,57.20
2022-10-17T21:40:15.614Z,57.30
2022-10-17T21:45:25.413Z,57.10
2022-10-17T21:50:30.001Z,57.20
2022-10-17T21:55:32.932Z,57.40
2022-10-17T22:00:35.899Z,57.30
2022-10-17T22:05:40.247Z,57.40
2022-10-17T22:10:43.160Z,57.60
2022-10-17T22:15:46.131Z,57.60
2022-10-17T22:20:50.429Z,57.60
2022-10-17T22:25:57.112Z,57.70
2022-10-17T22:31:00.124Z,57.80
2022-10-17T22:36:04.726Z,57.60
2022-10-17T22:41:07.934Z,57.80
2022-10-17T22:46:13.235Z,57.90
2022-10-17T22:51:17.745Z,58.00
2022-10-17T22:56:22.876Z,58.20
2022-10-17T23:01:26.749Z,58.20
2022-10-17T23:06:31.124Z,58.20
2022-10-17T23:11:34.060Z,58.20
2022-10-17T23:16:36.951Z,58.00
2022-10-17T23:21:41.219Z,58.20
2022-10-17T23:26:44.156Z,58.30
2022-10-17T23:31:47.243Z,58.40
2022-10-17T23:36:52.758Z,58.40
2022-10-17T23:41:55.700Z,58.60
2022-10-17T23:46:58.608Z,58.40
2022-10-17T23:52:02.936Z,58.40
2022-10-17T23:57:05.870Z,58.50
